createdAt,value
2017-01-30T00:00:17.082Z,0.00
2017-01-30T00:01:17.758Z,0.00
2017-01-30T00:02:18.142Z,0.00
2017-01-30T00:03:18.656Z,0.00
2017-01-30T00:04:19.327Z,0.00
2017-01-30T00:05:19.839Z,0.00
2017-01-30T00:06:20.244Z,0.00
2017-01-30T00:07:20.739Z,0.00
2017-01-30T00:08:21.257Z,0.00
2017-01-30T00:09:21.920Z,0.00
2017-01-30T00:10:22.312Z,0.00
2017-01-30T00:11:22.965Z,0.00
2017-01-30T00:12:23.331Z,0.00
2017-01-30T00:13:23.855Z,0.00
2017-01-30T00:14:24.524Z,0.00
2017-01-30T00:15:24.903Z,0.00
2017-01-30T00:16:25.421Z,0.00
2017-01-30T00:17:26.103Z,0.00
2017-01-30T00:18:26.611Z,0.00
2017-01-30T00:19:27.194Z,0.00
2017-01-30T00:20:27.653Z,0.00
2017-01-30T00:21:28.059Z,0.00
2017-01-30T00:22:28.551Z,0.00
2017-01-30T00:23:29.229Z,0.00
2017-01-30T00:24:29.595Z,0.00
2017-01-30T00:25:30.137Z,0.00
2017-01-30T00:26:30.781Z,0.00
2017-01-30T00:27:31.200Z,0.00
2017-01-30T00:28:31.822Z,0.00
2017-01-30T00:29:32.217Z,0.00
2017-01-30T00:30:32.879Z,0.00
2017-01-30T00:31:33.247Z,0.00
2017-01-30T00:32:33.763Z,0.00
2017-01-30T00:33:34.426Z,0.00
2017-01-30T00:34:34.951Z,0.00
2017-01-30T00:35:35.334Z,0.00
2017-01-30T00:36:35.992Z,0.00
2017-01-30T00:37:36.416Z,0.00
2017-01-30T00:38:37.036Z,0.00
2017-01-30T00:39:37.424Z,0.00
2017-01-30T00:40:37.953Z,0.00
2017-01-30T00:41:38.456Z,0.00
2017-01-30T00:42:39.000Z,0.00
2017-01-30T00:43:39.515Z,0.00
2017-01-30T00:44:40.028Z,0.00
2017-01-30T00:45:40.574Z,0.00
2017-01-30T00:46:41.107Z,0.00
2017-01-30T00:47:41.590Z,0.00
2017-01-30T00:48:42.114Z,0.00
2017-01-30T00:49:42.636Z,0.00
2017-01-30T00:50:43.176Z,0.00
2017-01-30T00:51:43.688Z,0.00
2017-01-30T00:52:44.350Z,0.00
2017-01-30T00:53:44.876Z,0.00
2017-01-30T00:54:45.247Z,0.00
2017-01-30T00:55:45.913Z,0.00
2017-01-30T00:56:46.338Z,0.00
2017-01-30T00:57:46.960Z,0.00
2017-01-30T00:58:47.478Z,0.00
2017-01-30T00:59:48.155Z,0.00
2017-01-30T01:00:48.526Z,0.00
2017-01-30T01:01:49.044Z,0.00
2017-01-30T01:02:49.420Z,0.00
2017-01-30T01:03:49.938Z,0.00
2017-01-30T01:04:50.471Z,0.00
2017-01-30T01:05:51.126Z,0.00
2017-01-30T01:06:51.497Z,0.00
2017-01-30T01:07:52.030Z,0.00
2017-01-30T01:08:52.541Z,0.00
2017-01-30T01:09:53.088Z,0.00
2017-01-30T01:10:53.587Z,0.00
2017-01-30T01:11:54.253Z,0.00
2017-01-30T01:12:54.777Z,0.00
2017-01-30T01:13:55.168Z,0.00
2017-01-30T01:14:55.673Z,0.00
2017-01-30T01:15:56.337Z,0.00
2017-01-30T01:16:56.713Z,0.00
2017-01-30T01:17:57.384Z,0.00
2017-01-30T01:18:57.902Z,0.00
2017-01-30T01:19:58.301Z,0.00
2017-01-30T01:20:58.944Z,0.00
2017-01-30T01:21:59.484Z,0.00
2017-01-30T01:22:59.995Z,0.00
2017-01-30T01:24:00.520Z,0.00
2017-01-30T01:25:00.919Z,0.00
2017-01-30T01:26:01.417Z,0.00
2017-01-30T01:27:01.952Z,0.00
2017-01-30T01:28:02.615Z,0.00
2017-01-30T01:29:02.981Z,0.00
2017-01-30T01:30:03.650Z,0.00
2017-01-30T01:31:04.169Z,0.00
2017-01-30T01:32:04.555Z,0.00
2017-01-30T01:33:05.082Z,0.00
2017-01-30T01:34:05.587Z,0.00
2017-01-30T01:35:06.121Z,0.00
2017-01-30T01:36:06.640Z,0.00
2017-01-30T01:37:07.158Z,0.00
2017-01-30T01:38:07.664Z,0.00
2017-01-30T01:39:08.389Z,0.00
2017-01-30T01:40:09.008Z,0.00
2017-01-30T01:41:09.234Z,0.00
2017-01-30T01:42:09.761Z,0.00
2017-01-30T01:43:10.424Z,0.00
2017-01-30T01:44:10.793Z,0.00
2017-01-30T01:45:11.322Z,0.00
2017-01-30T01:46:11.853Z,0.00
2017-01-30T01:47:12.512Z,0.00
2017-01-30T01:48:12.888Z,0.00
2017-01-30T01:49:13.408Z,0.00
2017-01-30T01:50:13.939Z,0.00
2017-01-30T01:51:14.455Z,0.00
2017-01-30T01:52:14.981Z,0.00
2017-01-30T01:53:15.500Z,0.00
2017-01-30T01:54:16.015Z,0.00
2017-01-30T01:55:16.541Z,0.00
2017-01-30T01:56:17.064Z,0.00
2017-01-30T01:57:17.592Z,0.00
2017-01-30T01:58:18.105Z,0.00
2017-01-30T01:59:18.625Z,0.00
2017-01-30T02:00:19.154Z,0.00
2017-01-30T02:01:19.810Z,0.00
2017-01-30T02:02:20.186Z,0.00
2017-01-30T02:03:20.734Z,0.00
2017-01-30T02:04:21.233Z,0.00
2017-01-30T02:05:21.759Z,0.00
2017-01-30T02:06:22.436Z,0.00
2017-01-30T02:07:22.808Z,0.00
2017-01-30T02:08:23.334Z,0.00
2017-01-30T02:09:23.857Z,0.00
2017-01-30T02:10:24.526Z,0.00
2017-01-30T02:11:25.036Z,0.00
2017-01-30T02:12:25.423Z,0.00
2017-01-30T02:13:26.083Z,0.00
2017-01-30T02:14:26.608Z,0.00
2017-01-30T02:15:27.147Z,0.00
2017-01-30T02:16:27.655Z,0.00
2017-01-30T02:17:28.045Z,0.00
2017-01-30T02:18:28.689Z,0.00
2017-01-30T02:19:29.281Z,0.00
2017-01-30T02:20:29.629Z,0.00
2017-01-30T02:21:30.254Z,0.00
2017-01-30T02:22:30.624Z,0.00
2017-01-30T02:23:31.145Z,0.00
2017-01-30T02:24:31.673Z,0.00
2017-01-30T02:25:32.200Z,0.00
2017-01-30T02:26:32.713Z,0.00
2017-01-30T02:27:33.242Z,0.00
2017-01-30T02:28:33.764Z,0.00
2017-01-30T02:29:34.303Z,0.00
2017-01-30T02:30:34.946Z,0.00
2017-01-30T02:31:35.319Z,0.00
2017-01-30T02:32:35.853Z,0.00
2017-01-30T02:33:36.504Z,0.00
2017-01-30T02:34:36.886Z,0.00
2017-01-30T02:35:37.452Z,0.00
2017-01-30T02:36:38.075Z,0.00
2017-01-30T02:37:38.594Z,0.00
2017-01-30T02:38:38.972Z,0.00
2017-01-30T02:39:39.639Z,0.00
2017-01-30T02:40:40.018Z,0.00
2017-01-30T02:41:40.573Z,0.00
2017-01-30T02:42:41.074Z,0.00
2017-01-30T02:43:41.573Z,0.00
2017-01-30T02:44:42.247Z,0.00
2017-01-30T02:45:42.626Z,0.00
2017-01-30T02:46:43.300Z,0.00
2017-01-30T02:47:43.674Z,0.00
2017-01-30T02:48:44.196Z,0.00
2017-01-30T02:49:44.739Z,0.00
2017-01-30T02:50:45.262Z,0.00
2017-01-30T02:51:45.775Z,0.00
2017-01-30T02:52:46.284Z,0.00
2017-01-30T02:53:46.950Z,0.00
2017-01-30T02:54:47.346Z,0.00
2017-01-30T02:55:47.868Z,0.00
2017-01-30T02:56:48.392Z,0.00
2017-01-30T02:57:48.899Z,0.00
2017-01-30T02:58:49.428Z,0.00
2017-01-30T02:59:50.240Z,0.00
2017-01-30T03:00:50.607Z,0.00
2017-01-30T03:01:50.984Z,0.00
2017-01-30T03:02:51.501Z,0.00
2017-01-30T03:03:52.032Z,0.00
2017-01-30T03:04:52.564Z,0.00
2017-01-30T03:05:53.090Z,0.00
2017-01-30T03:06:53.598Z,0.00
2017-01-30T03:07:54.123Z,0.00
2017-01-30T03:08:54.641Z,0.00
2017-01-30T03:09:55.301Z,0.00
2017-01-30T03:10:55.832Z,0.00
2017-01-30T03:11:56.249Z,0.00
2017-01-30T03:12:56.746Z,0.00
2017-01-30T03:13:57.390Z,0.00
2017-01-30T03:14:57.915Z,0.00
2017-01-30T03:15:58.435Z,0.00
2017-01-30T03:16:58.819Z,0.00
2017-01-30T03:17:59.323Z,0.00
2017-01-30T03:18:59.848Z,0.00
2017-01-30T03:20:00.513Z,0.00
2017-01-30T03:21:00.898Z,0.00
2017-01-30T03:22:01.416Z,0.00
2017-01-30T03:23:01.945Z,0.00
2017-01-30T03:24:02.471Z,0.00
2017-01-30T03:25:02.998Z,0.00
2017-01-30T03:26:03.552Z,0.00
2017-01-30T03:27:04.033Z,0.00
2017-01-30T03:28:04.713Z,0.00
2017-01-30T03:29:05.078Z,0.00
2017-01-30T03:30:05.743Z,0.00
2017-01-30T03:31:06.276Z,0.00
2017-01-30T03:32:06.794Z,0.00
2017-01-30T03:33:07.199Z,0.00
2017-01-30T03:34:07.737Z,0.00
2017-01-30T03:35:08.226Z,0.00
2017-01-30T03:36:08.726Z,0.00
2017-01-30T03:37:09.253Z,0.00
2017-01-30T03:38:09.785Z,0.00
2017-01-30T03:39:10.589Z,0.00
2017-01-30T03:40:10.956Z,0.00
2017-01-30T03:41:11.486Z,0.00
2017-01-30T03:42:12.002Z,0.00
2017-01-30T03:43:12.384Z,0.00
2017-01-30T03:44:12.903Z,0.00
2017-01-30T03:45:13.410Z,0.00
2017-01-30T03:46:13.937Z,0.00
2017-01-30T03:47:14.469Z,0.00
2017-01-30T03:48:15.125Z,0.00
2017-01-30T03:49:15.503Z,0.00
2017-01-30T03:50:16.062Z,0.00
2017-01-30T03:51:16.542Z,0.00
2017-01-30T03:52:17.073Z,0.00
2017-01-30T03:53:17.603Z,0.00
2017-01-30T03:54:18.108Z,0.00
2017-01-30T03:55:18.780Z,0.00
2017-01-30T03:56:19.165Z,0.00
2017-01-30T03:57:19.671Z,0.00
2017-01-30T03:58:20.361Z,0.00
2017-01-30T03:59:20.865Z,0.00
2017-01-30T04:00:21.242Z,0.00
2017-01-30T04:01:21.761Z,0.00
2017-01-30T04:02:22.282Z,0.00
2017-01-30T04:03:22.815Z,0.00
2017-01-30T04:04:23.471Z,0.00
2017-01-30T04:05:23.859Z,0.00
2017-01-30T04:06:24.517Z,0.00
2017-01-30T04:07:25.040Z,0.00
2017-01-30T04:08:25.570Z,0.00
2017-01-30T04:09:25.950Z,0.00
2017-01-30T04:10:26.607Z,0.00
2017-01-30T04:11:27.006Z,0.00
2017-01-30T04:12:27.512Z,0.00
2017-01-30T04:13:28.178Z,0.00
2017-01-30T04:14:28.555Z,0.00
2017-01-30T04:15:29.221Z,0.00
2017-01-30T04:16:29.596Z,0.00
2017-01-30T04:17:30.112Z,0.00
2017-01-30T04:18:30.647Z,0.00
2017-01-30T04:19:31.455Z,0.00
2017-01-30T04:20:31.830Z,0.00
2017-01-30T04:21:32.208Z,0.00
2017-01-30T04:22:32.729Z,0.00
2017-01-30T04:23:33.254Z,0.00
2017-01-30T04:24:33.762Z,0.00
2017-01-30T04:25:34.435Z,0.00
2017-01-30T04:26:34.804Z,0.00
2017-01-30T04:27:35.471Z,0.00
2017-01-30T04:28:35.993Z,0.00
2017-01-30T04:29:36.528Z,0.00
2017-01-30T04:30:36.889Z,0.00
2017-01-30T04:31:37.415Z,0.00
2017-01-30T04:32:38.080Z,0.00
2017-01-30T04:33:38.598Z,0.00
2017-01-30T04:34:39.116Z,0.00
2017-01-30T04:35:39.644Z,0.00
2017-01-30T04:36:40.034Z,0.00
2017-01-30T04:37:40.543Z,0.00
2017-01-30T04:38:41.203Z,0.00
2017-01-30T04:39:41.578Z,0.00
2017-01-30T04:40:42.114Z,0.00
2017-01-30T04:41:42.622Z,0.00
2017-01-30T04:42:43.156Z,0.00
2017-01-30T04:43:43.819Z,0.00
2017-01-30T04:44:44.187Z,0.00
2017-01-30T04:45:44.859Z,0.00
2017-01-30T04:46:45.374Z,0.00
2017-01-30T04:47:45.760Z,0.00
2017-01-30T04:48:46.272Z,0.00
2017-01-30T04:49:46.796Z,0.00
2017-01-30T04:50:47.336Z,0.00
2017-01-30T04:51:47.857Z,0.00
2017-01-30T04:52:48.366Z,0.00
2017-01-30T04:53:48.901Z,0.00
2017-01-30T04:54:49.424Z,0.00
2017-01-30T04:55:49.936Z,0.00
2017-01-30T04:56:50.463Z,0.00
2017-01-30T04:57:51.121Z,0.00
2017-01-30T04:58:51.493Z,0.00
2017-01-30T04:59:52.171Z,0.00
2017-01-30T05:00:52.537Z,0.00
2017-01-30T05:01:53.064Z,0.00
2017-01-30T05:02:53.600Z,0.00
2017-01-30T05:03:54.121Z,0.00
2017-01-30T05:04:54.620Z,0.00
2017-01-30T05:05:55.160Z,0.00
2017-01-30T05:06:55.814Z,0.00
2017-01-30T05:07:56.188Z,0.00
2017-01-30T05:08:56.853Z,0.00
2017-01-30T05:09:57.236Z,0.00
2017-01-30T05:10:57.759Z,0.00
2017-01-30T05:11:58.275Z,0.00
2017-01-30T05:12:58.796Z,0.00
2017-01-30T05:13:59.462Z,0.00
2017-01-30T05:15:00.157Z,0.00
2017-01-30T05:16:00.376Z,0.00
2017-01-30T05:17:01.025Z,0.00
2017-01-30T05:18:01.402Z,0.00
2017-01-30T05:19:01.923Z,0.00
2017-01-30T05:20:02.445Z,0.00
2017-01-30T05:21:02.967Z,0.00
2017-01-30T05:22:03.507Z,0.00
2017-01-30T05:23:04.034Z,0.00
2017-01-30T05:24:04.676Z,0.00
2017-01-30T05:25:05.066Z,0.00
2017-01-30T05:26:05.584Z,0.00
2017-01-30T05:27:06.108Z,0.00
2017-01-30T05:28:06.618Z,0.00
2017-01-30T05:29:07.152Z,0.00
2017-01-30T05:30:07.683Z,0.00
2017-01-30T05:31:08.195Z,0.00
2017-01-30T05:32:08.716Z,0.00
2017-01-30T05:33:09.384Z,0.00
2017-01-30T05:34:09.913Z,0.00
2017-01-30T05:35:10.429Z,0.00
2017-01-30T05:36:10.856Z,0.00
2017-01-30T05:37:11.334Z,0.00
2017-01-30T05:38:11.861Z,0.00
2017-01-30T05:39:12.522Z,0.00
2017-01-30T05:40:13.042Z,0.00
2017-01-30T05:41:13.565Z,0.00
2017-01-30T05:42:13.938Z,0.00
2017-01-30T05:43:14.608Z,0.00
2017-01-30T05:44:15.127Z,0.00
2017-01-30T05:45:15.495Z,0.00
2017-01-30T05:46:16.054Z,0.00
2017-01-30T05:47:16.680Z,0.00
2017-01-30T05:48:17.096Z,0.00
2017-01-30T05:49:17.590Z,0.00
2017-01-30T05:50:18.111Z,0.00
2017-01-30T05:51:18.672Z,0.00
2017-01-30T05:52:19.294Z,0.00
2017-01-30T05:53:19.815Z,0.00
2017-01-30T05:54:20.340Z,0.00
2017-01-30T05:55:20.711Z,0.00
2017-01-30T05:56:21.377Z,0.00
2017-01-30T05:57:21.903Z,0.00
2017-01-30T05:58:22.286Z,0.00
2017-01-30T05:59:22.797Z,0.00
2017-01-30T06:00:23.329Z,0.00
2017-01-30T06:01:23.984Z,0.00
2017-01-30T06:02:24.519Z,0.00
2017-01-30T06:03:25.023Z,0.00
2017-01-30T06:04:25.424Z,0.00
2017-01-30T06:05:25.917Z,0.00
2017-01-30T06:06:26.444Z,0.00
2017-01-30T06:07:26.962Z,0.00
2017-01-30T06:08:27.498Z,0.00
2017-01-30T06:09:28.147Z,0.00
2017-01-30T06:10:28.533Z,0.00
2017-01-30T06:11:29.051Z,0.00
2017-01-30T06:12:29.571Z,0.00
2017-01-30T06:13:30.258Z,0.00
2017-01-30T06:14:30.628Z,0.00
2017-01-30T06:15:31.146Z,0.00
2017-01-30T06:16:31.682Z,0.00
2017-01-30T06:17:32.197Z,0.00
2017-01-30T06:18:32.869Z,0.00
2017-01-30T06:19:33.544Z,0.00
2017-01-30T06:20:33.913Z,0.00
2017-01-30T06:21:34.281Z,0.00
2017-01-30T06:22:34.796Z,0.00
2017-01-30T06:23:35.332Z,0.00
2017-01-30T06:24:35.990Z,0.00
2017-01-30T06:25:36.366Z,0.00
2017-01-30T06:26:36.896Z,0.00
2017-01-30T06:27:37.445Z,0.00
2017-01-30T06:28:37.921Z,0.00
2017-01-30T06:29:38.591Z,0.00
2017-01-30T06:30:39.119Z,0.00
2017-01-30T06:31:39.493Z,0.00
2017-01-30T06:32:40.020Z,0.00
2017-01-30T06:33:40.537Z,0.00
2017-01-30T06:34:41.068Z,0.00
2017-01-30T06:35:41.593Z,0.00
2017-01-30T06:36:42.249Z,0.00
2017-01-30T06:37:42.618Z,0.00
2017-01-30T06:38:43.135Z,0.00
2017-01-30T06:40:44.194Z,0.00
2017-01-30T06:41:44.705Z,0.00
2017-01-30T06:42:45.374Z,0.00
2017-01-30T06:43:45.749Z,0.00
2017-01-30T06:44:46.409Z,0.00
2017-01-30T06:45:46.930Z,0.00
2017-01-30T06:46:47.457Z,0.00
2017-01-30T06:47:47.836Z,0.00
2017-01-30T06:48:48.355Z,0.00
2017-01-30T06:49:48.866Z,0.00
2017-01-30T06:50:49.390Z,0.00
2017-01-30T06:51:49.925Z,0.00
2017-01-30T06:52:50.577Z,0.00
2017-01-30T06:53:50.956Z,0.00
2017-01-30T06:54:51.479Z,0.00
2017-01-30T06:55:52.149Z,0.00
2017-01-30T06:56:52.673Z,0.00
2017-01-30T06:57:53.194Z,0.00
2017-01-30T06:58:53.659Z,0.00
2017-01-30T06:59:54.284Z,0.00
2017-01-30T07:00:54.634Z,0.00
2017-01-30T07:01:55.291Z,0.00
2017-01-30T07:02:55.668Z,0.00
2017-01-30T07:03:56.190Z,0.00
2017-01-30T07:04:56.721Z,0.00
2017-01-30T07:05:57.373Z,0.00
2017-01-30T07:06:57.790Z,0.00
2017-01-30T07:07:58.318Z,0.00
2017-01-30T07:08:58.789Z,0.00
2017-01-30T07:09:59.324Z,0.00
2017-01-30T07:10:59.844Z,0.00
2017-01-30T07:12:00.365Z,0.00
2017-01-30T07:13:01.023Z,0.00
2017-01-30T07:14:01.395Z,0.00
2017-01-30T07:15:02.065Z,0.00
2017-01-30T07:16:02.447Z,0.00
2017-01-30T07:17:02.962Z,0.00
2017-01-30T07:18:03.626Z,0.00
2017-01-30T07:19:04.006Z,0.00
2017-01-30T07:20:04.526Z,0.00
2017-01-30T07:21:05.192Z,0.00
2017-01-30T07:22:05.716Z,0.00
2017-01-30T07:23:06.098Z,0.00
2017-01-30T07:24:06.610Z,0.00
2017-01-30T07:25:07.129Z,0.00
2017-01-30T07:26:07.653Z,0.00
2017-01-30T07:27:08.177Z,0.00
2017-01-30T07:28:08.699Z,0.00
2017-01-30T07:29:09.212Z,0.00
2017-01-30T07:30:09.735Z,0.00
2017-01-30T07:31:10.251Z,0.00
2017-01-30T07:32:10.781Z,0.00
2017-01-30T07:33:11.300Z,0.00
2017-01-30T07:34:11.971Z,0.00
2017-01-30T07:35:12.369Z,0.00
2017-01-30T07:36:13.018Z,0.00
2017-01-30T07:37:13.402Z,0.00
2017-01-30T07:38:13.935Z,0.00
2017-01-30T07:39:14.755Z,0.00
2017-01-30T07:40:15.115Z,0.00
2017-01-30T07:41:15.491Z,0.00
2017-01-30T07:42:16.022Z,0.00
2017-01-30T07:43:16.685Z,0.00
2017-01-30T07:44:17.083Z,0.00
2017-01-30T07:45:17.594Z,0.00
2017-01-30T07:46:18.120Z,0.00
2017-01-30T07:47:18.625Z,0.00
2017-01-30T07:48:19.151Z,0.00
2017-01-30T07:49:19.669Z,0.00
2017-01-30T07:50:20.236Z,0.00
2017-01-30T07:51:20.726Z,0.00
2017-01-30T07:52:21.252Z,1.00
2017-01-30T07:53:21.768Z,1.00
2017-01-30T07:54:22.283Z,0.00
2017-01-30T07:55:22.811Z,0.00
2017-01-30T07:56:23.332Z,0.00
2017-01-30T07:57:23.854Z,0.00
2017-01-30T07:58:24.372Z,0.00
2017-01-30T07:59:25.045Z,0.00
2017-01-30T08:00:25.564Z,0.00
2017-01-30T08:01:26.006Z,0.00
2017-01-30T08:02:26.606Z,0.00
2017-01-30T08:03:27.145Z,0.00
2017-01-30T08:04:27.505Z,0.00
2017-01-30T08:05:28.173Z,0.00
2017-01-30T08:06:28.696Z,0.00
2017-01-30T08:07:29.112Z,0.00
2017-01-30T08:08:29.607Z,0.00
2017-01-30T08:09:30.264Z,0.00
2017-01-30T08:10:30.661Z,0.00
2017-01-30T08:11:31.307Z,0.00
2017-01-30T08:12:31.678Z,1.00
2017-01-30T08:13:32.243Z,1.00
2017-01-30T08:14:32.764Z,1.00
2017-01-30T08:15:33.257Z,1.00
2017-01-30T08:16:33.772Z,1.00
2017-01-30T08:17:34.324Z,1.00
2017-01-30T08:18:35.256Z,1.00
2017-01-30T08:19:35.479Z,1.00
2017-01-30T08:20:35.868Z,1.00
2017-01-30T08:21:36.533Z,1.00
2017-01-30T08:22:36.915Z,1.00
2017-01-30T08:23:37.431Z,1.00
2017-01-30T08:24:38.098Z,1.00
2017-01-30T08:25:38.484Z,1.00
2017-01-30T08:26:39.143Z,1.00
2017-01-30T08:27:39.669Z,1.00
2017-01-30T08:28:40.192Z,1.00
2017-01-30T08:29:40.567Z,1.00
2017-01-30T08:30:41.082Z,1.00
2017-01-30T08:31:41.749Z,1.00
2017-01-30T08:32:42.123Z,1.00
2017-01-30T08:33:42.648Z,1.00
2017-01-30T08:34:43.187Z,1.00
2017-01-30T08:35:43.694Z,1.00
2017-01-30T08:36:44.344Z,1.00
2017-01-30T08:37:44.724Z,1.00
2017-01-30T08:38:45.390Z,1.00
2017-01-30T08:39:45.774Z,1.00
2017-01-30T08:40:46.426Z,1.00
2017-01-30T08:41:46.804Z,1.00
2017-01-30T08:42:47.469Z,1.00
2017-01-30T08:43:47.857Z,1.00
2017-01-30T08:44:48.508Z,1.00
2017-01-30T08:45:49.036Z,1.00
2017-01-30T08:46:49.410Z,1.00
2017-01-30T08:47:49.942Z,1.00
2017-01-30T08:48:50.595Z,1.00
2017-01-30T08:49:50.973Z,1.00
2017-01-30T08:50:51.637Z,1.00
2017-01-30T08:51:52.159Z,1.00
2017-01-30T08:52:52.678Z,0.00
2017-01-30T08:53:53.058Z,0.00
2017-01-30T08:54:53.598Z,0.00
2017-01-30T08:55:54.245Z,0.00
2017-01-30T08:56:54.764Z,0.00
2017-01-30T08:57:55.313Z,0.00
2017-01-30T08:58:55.849Z,0.00
2017-01-30T08:59:56.248Z,0.00
2017-01-30T09:00:56.710Z,0.00
2017-01-30T09:01:57.230Z,1.00
2017-01-30T09:02:57.752Z,1.00
2017-01-30T09:03:58.282Z,2.00
2017-01-30T09:04:58.801Z,2.00
2017-01-30T09:05:59.463Z,3.00
2017-01-30T09:06:59.990Z,3.00
2017-01-30T09:08:00.372Z,4.00
2017-01-30T09:09:00.884Z,4.00
2017-01-30T09:10:01.406Z,4.00
2017-01-30T09:11:01.938Z,4.00
2017-01-30T09:12:02.624Z,5.00
2017-01-30T09:13:02.972Z,5.00
2017-01-30T09:14:03.639Z,6.00
2017-01-30T09:15:04.159Z,6.00
2017-01-30T09:16:04.529Z,6.00
2017-01-30T09:17:05.079Z,6.00
2017-01-30T09:18:05.719Z,7.00
2017-01-30T09:19:06.088Z,7.00
2017-01-30T09:20:06.762Z,7.00
2017-01-30T09:21:07.141Z,7.00
2017-01-30T09:22:07.665Z,7.00
2017-01-30T09:23:08.171Z,7.00
2017-01-30T09:24:08.848Z,6.00
2017-01-30T09:25:09.222Z,4.00
2017-01-30T09:26:09.892Z,4.00
2017-01-30T09:27:10.295Z,3.00
2017-01-30T09:28:10.936Z,3.00
2017-01-30T09:29:11.304Z,3.00
2017-01-30T09:30:11.829Z,2.00
2017-01-30T09:31:12.496Z,3.00
2017-01-30T09:32:13.019Z,3.00
2017-01-30T09:33:13.437Z,3.00
2017-01-30T09:34:13.932Z,3.00
2017-01-30T09:35:14.447Z,3.00
2017-01-30T09:36:15.116Z,3.00
2017-01-30T09:37:15.484Z,3.00
2017-01-30T09:38:16.328Z,3.00
2017-01-30T09:39:16.528Z,4.00
2017-01-30T09:40:17.041Z,4.00
2017-01-30T09:41:17.559Z,4.00
2017-01-30T09:42:18.086Z,5.00
2017-01-30T09:43:18.753Z,5.00
2017-01-30T09:44:19.120Z,5.00
2017-01-30T09:45:19.660Z,5.00
2017-01-30T09:46:20.192Z,5.00
2017-01-30T09:47:20.694Z,4.00
2017-01-30T09:48:21.229Z,4.00
2017-01-30T09:49:21.884Z,3.00
2017-01-30T09:50:22.407Z,3.00
2017-01-30T09:51:22.931Z,3.00
2017-01-30T09:52:23.319Z,4.00
2017-01-30T09:53:23.968Z,4.00
2017-01-30T09:54:24.353Z,5.00
2017-01-30T09:55:25.036Z,5.00
2017-01-30T09:56:25.395Z,5.00
2017-01-30T09:57:25.923Z,5.00
2017-01-30T09:58:26.435Z,5.00
2017-01-30T09:59:26.968Z,6.00
2017-01-30T10:00:27.473Z,7.00
2017-01-30T10:01:27.998Z,7.00
2017-01-30T10:02:28.532Z,8.00
2017-01-30T10:03:29.041Z,9.00
2017-01-30T10:04:29.711Z,9.00
2017-01-30T10:05:30.104Z,10.00
2017-01-30T10:06:30.614Z,9.00
2017-01-30T10:07:31.270Z,8.00
2017-01-30T10:08:31.681Z,8.00
2017-01-30T10:09:32.311Z,8.00
2017-01-30T10:10:32.702Z,7.00
2017-01-30T10:11:33.231Z,7.00
2017-01-30T10:12:33.879Z,8.00
2017-01-30T10:13:34.264Z,9.00
2017-01-30T10:14:34.785Z,9.00
2017-01-30T10:15:35.293Z,9.00
2017-01-30T10:16:35.813Z,9.00
2017-01-30T10:17:36.566Z,9.00
2017-01-30T10:18:37.017Z,7.00
2017-01-30T10:19:37.385Z,7.00
2017-01-30T10:20:37.909Z,6.00
2017-01-30T10:21:38.441Z,6.00
2017-01-30T10:22:38.954Z,5.00
2017-01-30T10:23:39.470Z,5.00
2017-01-30T10:24:40.133Z,5.00
2017-01-30T10:25:40.524Z,5.00
2017-01-30T10:26:41.057Z,5.00
2017-01-30T10:27:41.561Z,6.00
2017-01-30T10:28:42.096Z,6.00
2017-01-30T10:29:42.645Z,6.00
2017-01-30T10:30:43.277Z,6.00
2017-01-30T10:31:43.659Z,6.00
2017-01-30T10:32:44.194Z,5.00
2017-01-30T10:33:44.844Z,5.00
2017-01-30T10:34:45.367Z,6.00
2017-01-30T10:35:45.760Z,6.00
2017-01-30T10:36:46.255Z,6.00
2017-01-30T10:37:46.774Z,6.00
2017-01-30T10:38:47.306Z,6.00
2017-01-30T10:39:47.863Z,6.00
2017-01-30T10:40:48.483Z,6.00
2017-01-30T10:41:49.001Z,7.00
2017-01-30T10:42:49.524Z,7.00
2017-01-30T10:43:49.915Z,7.00
2017-01-30T10:44:50.432Z,8.00
2017-01-30T10:45:50.982Z,8.00
2017-01-30T10:46:51.502Z,8.00
2017-01-30T10:47:52.131Z,9.00
2017-01-30T10:48:52.511Z,10.00
2017-01-30T10:49:53.047Z,10.00
2017-01-30T10:50:53.700Z,9.00
2017-01-30T10:51:54.082Z,9.00
2017-01-30T10:52:54.598Z,9.00
2017-01-30T10:53:55.126Z,8.00
2017-01-30T10:54:55.781Z,8.00
2017-01-30T10:55:56.199Z,8.00
2017-01-30T10:56:56.686Z,8.00
2017-01-30T10:57:57.497Z,8.00
2017-01-30T10:58:57.737Z,8.00
2017-01-30T10:59:58.254Z,8.00
2017-01-30T11:00:58.911Z,8.00
2017-01-30T11:01:59.427Z,7.00
2017-01-30T11:02:59.798Z,7.00
2017-01-30T11:04:00.326Z,7.00
2017-01-30T11:05:00.854Z,6.00
2017-01-30T11:06:01.377Z,6.00
2017-01-30T11:07:01.918Z,7.00
2017-01-30T11:08:02.428Z,8.00
2017-01-30T11:09:02.944Z,8.00
2017-01-30T11:10:03.471Z,8.00
2017-01-30T11:11:03.994Z,8.00
2017-01-30T11:12:04.528Z,8.00
2017-01-30T11:13:05.042Z,7.00
2017-01-30T11:14:05.569Z,6.00
2017-01-30T11:15:06.226Z,5.00
2017-01-30T11:16:06.599Z,5.00
2017-01-30T11:17:07.268Z,5.00
2017-01-30T11:18:07.783Z,5.00
2017-01-30T11:19:08.160Z,6.00
2017-01-30T11:20:08.834Z,6.00
2017-01-30T11:21:09.222Z,6.00
2017-01-30T11:22:09.754Z,6.00
2017-01-30T11:23:10.253Z,7.00
2017-01-30T11:24:10.778Z,8.00
2017-01-30T11:25:11.290Z,10.00
2017-01-30T11:26:11.819Z,10.00
2017-01-30T11:27:12.359Z,10.00
2017-01-30T11:28:12.855Z,9.00
2017-01-30T11:29:13.407Z,9.00
2017-01-30T11:30:13.916Z,8.00
2017-01-30T11:31:14.422Z,8.00
2017-01-30T11:32:15.089Z,8.00
2017-01-30T11:33:15.474Z,8.00
2017-01-30T11:34:16.133Z,7.00
2017-01-30T11:35:16.509Z,6.00
2017-01-30T11:36:17.046Z,6.00
2017-01-30T11:37:17.588Z,5.00
2017-01-30T11:38:18.225Z,5.00
2017-01-30T11:39:18.603Z,5.00
2017-01-30T11:40:19.133Z,5.00
2017-01-30T11:41:19.642Z,5.00
2017-01-30T11:42:20.170Z,5.00
2017-01-30T11:43:20.837Z,5.00
2017-01-30T11:44:21.212Z,5.00
2017-01-30T11:45:21.871Z,4.00
2017-01-30T11:46:22.387Z,5.00
2017-01-30T11:47:22.912Z,5.00
2017-01-30T11:48:23.289Z,6.00
2017-01-30T11:49:23.967Z,7.00
2017-01-30T11:50:24.490Z,8.00
2017-01-30T11:51:25.020Z,9.00
2017-01-30T11:52:25.394Z,9.00
2017-01-30T11:53:25.949Z,9.00
2017-01-30T11:54:26.486Z,9.00
2017-01-30T11:55:27.106Z,7.00
2017-01-30T11:56:27.481Z,6.00
2017-01-30T11:57:28.005Z,6.00
2017-01-30T11:58:28.669Z,6.00
2017-01-30T11:59:29.069Z,7.00
2017-01-30T12:00:29.710Z,8.00
2017-01-30T12:01:30.085Z,9.00
2017-01-30T12:02:30.611Z,9.00
2017-01-30T12:03:31.133Z,9.00
2017-01-30T12:04:31.666Z,9.00
2017-01-30T12:05:32.174Z,9.00
2017-01-30T12:06:32.835Z,8.00
2017-01-30T12:07:33.225Z,8.00
2017-01-30T12:08:33.879Z,7.00
2017-01-30T12:09:34.257Z,6.00
2017-01-30T12:10:34.918Z,7.00
2017-01-30T12:11:35.294Z,8.00
2017-01-30T12:12:35.819Z,8.00
2017-01-30T12:13:36.493Z,8.00
2017-01-30T12:14:36.864Z,10.00
2017-01-30T12:15:37.394Z,12.00
2017-01-30T12:16:37.919Z,12.00
2017-01-30T12:17:38.597Z,11.00
2017-01-30T12:18:39.098Z,11.00
2017-01-30T12:19:39.478Z,11.00
2017-01-30T12:20:39.993Z,9.00
2017-01-30T12:21:40.666Z,8.00
2017-01-30T12:22:41.040Z,7.00
2017-01-30T12:23:41.564Z,7.00
2017-01-30T12:24:42.089Z,7.00
2017-01-30T12:25:42.601Z,7.00
2017-01-30T12:26:43.269Z,6.00
2017-01-30T12:27:43.643Z,6.00
2017-01-30T12:28:44.314Z,6.00
2017-01-30T12:29:44.705Z,6.00
2017-01-30T12:30:45.213Z,6.00
2017-01-30T12:31:45.747Z,5.00
2017-01-30T12:32:46.416Z,5.00
2017-01-30T12:33:46.786Z,6.00
2017-01-30T12:34:47.461Z,6.00
2017-01-30T12:35:47.984Z,6.00
2017-01-30T12:36:48.504Z,6.00
2017-01-30T12:37:49.028Z,6.00
2017-01-30T12:38:49.399Z,5.00
2017-01-30T12:39:49.929Z,6.00
2017-01-30T12:40:50.445Z,6.00
2017-01-30T12:41:51.110Z,6.00
2017-01-30T12:42:51.627Z,7.00
2017-01-30T12:43:52.015Z,7.00
2017-01-30T12:44:52.677Z,7.00
2017-01-30T12:45:53.049Z,7.00
2017-01-30T12:46:53.719Z,7.00
2017-01-30T12:47:54.128Z,8.00
2017-01-30T12:48:54.761Z,9.00
2017-01-30T12:49:55.136Z,10.00
2017-01-30T12:50:55.660Z,10.00
2017-01-30T12:51:56.203Z,9.00
2017-01-30T12:52:56.850Z,9.00
2017-01-30T12:53:57.232Z,10.00
2017-01-30T12:54:57.753Z,10.00
2017-01-30T12:55:58.270Z,10.00
2017-01-30T12:56:58.938Z,8.00
2017-01-30T12:57:59.612Z,7.00
2017-01-30T12:58:59.977Z,7.00
2017-01-30T13:00:00.361Z,7.00
2017-01-30T13:01:01.024Z,7.00
2017-01-30T13:02:01.547Z,6.00
2017-01-30T13:03:02.081Z,6.00
2017-01-30T13:04:02.592Z,6.00
2017-01-30T13:05:03.106Z,6.00
2017-01-30T13:06:03.485Z,6.00
2017-01-30T13:07:04.018Z,6.00
2017-01-30T13:08:04.527Z,6.00
2017-01-30T13:09:05.097Z,5.00
2017-01-30T13:10:05.571Z,5.00
2017-01-30T13:11:06.096Z,5.00
2017-01-30T13:12:06.627Z,5.00
2017-01-30T13:13:07.159Z,5.00
2017-01-30T13:14:07.817Z,5.00
2017-01-30T13:15:08.335Z,5.00
2017-01-30T13:16:08.734Z,5.00
2017-01-30T13:17:09.385Z,5.00
2017-01-30T13:18:09.766Z,5.00
2017-01-30T13:19:10.288Z,5.00
2017-01-30T13:20:10.840Z,5.00
2017-01-30T13:21:11.320Z,5.00
2017-01-30T13:22:11.845Z,5.00
2017-01-30T13:23:12.503Z,5.00
2017-01-30T13:24:13.028Z,5.00
2017-01-30T13:25:13.547Z,5.00